Aviation Digital Data Service (ADDS)

Output produced by METARs form (2155 UTC 16 February 2019)
found at http://www.aviationweather.gov/metar/data/
 
Forecast for: VOTV (THIRUVANANTHAPUR, IN)
Text: TAF VOTV 162000Z 1621/1706 03005KT 3000 RA BR SCT015 FEW025CB BKN080
Forecast period: 2100 UTC 16 February 2019 to 0400 UTC 17 February 2019
Forecast type: FROM: standard forecast or significant change
Winds: from the NNE (30 degrees) at 6 MPH (5 knots; 2.6 m/s)
Visibility: 1.86 miles (2.99 km)
Ceiling: 8000 feet AGL
Clouds: scattered clouds at 1500 feet AGL
few clouds at 2500 feet AGL
broken clouds at 8000 feet AGL
Weather: RA BR  (moderate rain, mist)
Text: TEMPO 1622/1702 2000 TSRA RA
Forecast period: 2200 UTC 16 February 2019 to 0200 UTC 17 February 2019
Forecast type: TEMPORARY: The following changes expected for less than half the time period
Visibility: 1.24 miles (2.00 km)
Ceiling: unknown
Clouds: missing
Weather: TSRA RA  (rain associated with thunderstorm(s), moderate rain)
Text: BECMG 1704/1705 32010KT 6000 SCT015 SCT090
Forecast period: 0400 to 0600 UTC 17 February 2019
Forecast type: BECOMING: Conditions expected to become as follows by 0500 UTC 17 February 2019
Winds: from the NW (320 degrees) at 12 MPH (10 knots; 5.1 m/s)
Visibility: 4 miles (6 km)
Ceiling: at least 12,000 feet AGL
Clouds: scattered clouds at 1500 feet AGL
scattered clouds at 9000 feet AGL
Weather: RA BR  (moderate rain, mist)